Campbell River Airport
CYBL : now visible

Airfield :











YOU CAN JOIN US ON...

 
LOGIN :

Register | Disclaimer

   EN    FR    IT 

 









Legend :    VFR   Marginal VFR   IFR   Intensive IFR   Very Intensive IFR
Visi :
Ceiling :
>= 8 km
>= 3000ft
5 to 8 km
1000 to 3000 ft
1500m to 5 km
500 to 1000 ft
800 to 1500m
200 to 500 ft
< 800m
< 200 ft
Symbols :   Thunderstorms  Fog  Heavy snow  Heavy precipitations  Wind > 20 kt






- Airport Elevation : 346 ft
- IATA code : YBL


CYBL - Campbell River

CURRENT METAR :
  • 152300Z 13014G23KT 6SM -RA BR SCT007 BKN015 OVC025 09/08 A2985 RMK SF4SC2SC2 SLP112

EXPIRED METARs :
  • 152238Z 12015G23KT 6SM -RA BR SCT007 BKN015 OVC030 09/08 A2985 RMK SF4SC2SC2 SLP113
  • 152200Z 12011KT 5SM -RA BR BKN007 BKN015 OVC035 09/09 A2986 RMK SF6SC1SC1 SLP114
  • 152100Z 12011G21KT 5SM -RA BR BKN006 BKN015 OVC040 09/09 A2986 RMK SF6SC1SC1 CIG RAG SLP115

TAF TAF CYBL
Valid from the 15 at 15:00 until the 16 at 03:00 UTC


151438Z 1515/1603 12010KT P6SM SCT012 SCT050 OVC100
BECMG 1516/1518 13015G25KT SCT008 OVC020
FM151800 13015G25KT P6SM -RA SCT008 OVC020
TEMPO 1518/1523 2SM RA BR BKN008
FM152300 13015G25KT P6SM -RA SCT002 OVC010
TEMPO 1523/1603 1SM RA BR OVC002
BECMG 1601/1603 12010KT RMK NXT FCST BY 151900Z



MET'MAP, your aeronautical weather chart ! - Copyright ORBIFLY December 2007 - Disclaimer

ORBIFLY MET'MAP TEAM :

Programming & Development : Alexandra Zaïnal
Concept & Development : Baudouin d'Aumeries
Co-Development & Prog : Marc-Olivier Méhu
Technical & hardware support : Manuel Goepfert

Contact : metmap@orbifly.com




SOURCES & CREDITS :

   NOAA       Earth
Advisory